Salt Flat, TX

2:33 PM MDT on September 22, 2014 (GMT -0600)
Guadalupe Pass | Change Station
CLOSE
Current Station
Airport
Location: Guadalupe Pass,
Elevation: 5453 ft
Nearby Weather Stations

Elev 5453 ft 31.83 °N, 104.81 °W | Updated 17 minutes ago

Fog
Fog
61 °F
Feels Like 61 °F
N
26
Wind Variable Wind from NE

Today
High -- | Low -- °F
--% Chance of Precip.
Yesterday
High -- | Low -- °F
Precip. -- in
6:47 AM 6:55 PM
Waning Crescent, 2% visible
Pressure 30.29 in
Visibility 1.0 miles
Clouds Overcast 200 ft
Dew Point 61 °F
Humidity 100%
Rainfall 1.43 in
Snow Depth Not available.
UV 3 out of 12
Pollen 3.40 out of 12
Air Quality Not available.
Flu Activity Not available.
SPECI KGDP 222016Z AUTO 05023KT 1SM -RA BR OVC002 16/16 A3029 RMK AO2 PK WND 04027/2003 RAB1955 P0000 T01610161 $

More Conditions Fewer Conditions

Pressure 30.29 in
Visibility 1.0 miles
Clouds Overcast 200 ft
Dew Point 61 °F
Humidity 100%
Rainfall 1.43 in
Snow Depth Not available.
UV 3 out of 12
Pollen 3.40 out of 12
Air Quality Not available.
Flu Activity Not available.
SPECI KGDP 222016Z AUTO 05023KT 1SM -RA BR OVC002 16/16 A3029 RMK AO2 PK WND 04027/2003 RAB1955 P0000 T01610161 $

More Conditions Fewer Conditions

10-Day Weather Forecast

Almanac

Astronomy

Sep. 22, 2014 Rise Set
Actual Time 6:47 AM MDT 6:55 PM MDT
Civil Twilight 6:23 AM MDT 7:20 PM MDT
Nautical Twilight 5:54 AM MDT 7:48 PM MDT
Astronomical Twilight 5:26 AM MDT 8:17 PM MDT
Moon 5:22 AM MDT 6:02 PM MDT
Length of Visible Light 12h 56m
Length of Day
12h 08m
Tomorrow will be 1m 56s shorter.
Waning Crescent, 2% of the Moon is Illuminated
Today
Waning Crescent
Sep 24
New
Oct 1
First Quarter
Oct 8
Full
Oct 15
Last Quarter

Today's Extremes

State Highs State Lows

Community

WunderPhotos

Upload Photos

1,755,522 photos uploaded!

WunderBlogs® & News

Nearby

Snow Depth

Station Depth Elevation
No new snow has been reported.

Earthquake Activity

City Distance Mag. Time & Date
No recent earthquake activity has been reported nearby.
Minimum magnitude displayed is 2.5.

Coastal Water Temperatures

Place Temperature
No Stations Reporting

Nearby Weather Stations